sensor_id;sensor_type;location;lat;lon;timestamp;pressure;altitude;pressure_sealevel;temperature;humidity
47374;BME280;33123;50.118;10.272;2023-04-07T00:00:41;97711.09;;;5.86;51.59
47374;BME280;33123;50.118;10.272;2023-04-07T00:03:08;97719.53;;;5.88;51.40
47374;BME280;33123;50.118;10.272;2023-04-07T00:05:35;97706.25;;;5.89;50.95
47374;BME280;33123;50.118;10.272;2023-04-07T00:08:02;97707.66;;;5.92;50.93
47374;BME280;33123;50.118;10.272;2023-04-07T00:10:28;97698.59;;;5.94;50.16
47374;BME280;33123;50.118;10.272;2023-04-07T00:12:55;97707.81;;;5.97;50.45
47374;BME280;33123;50.118;10.272;2023-04-07T00:15:22;97700.53;;;5.99;50.43
47374;BME280;33123;50.118;10.272;2023-04-07T00:17:50;97699.09;;;6.03;50.08
47374;BME280;33123;50.118;10.272;2023-04-07T00:20:16;97710.13;;;6.05;49.81
47374;BME280;33123;50.118;10.272;2023-04-07T00:22:43;97704.47;;;6.08;50.43
47374;BME280;33123;50.118;10.272;2023-04-07T00:25:09;97691.16;;;6.09;50.40
47374;BME280;33123;50.118;10.272;2023-04-07T00:27:36;97692.34;;;6.14;51.88
47374;BME280;33123;50.118;10.272;2023-04-07T00:30:04;97684.28;;;6.15;54.12
47374;BME280;33123;50.118;10.272;2023-04-07T00:32:31;97689.09;;;6.18;53.61
47374;BME280;33123;50.118;10.272;2023-04-07T00:34:59;97686.25;;;6.20;51.93
47374;BME280;33123;50.118;10.272;2023-04-07T00:37:25;97685.81;;;6.23;51.91
47374;BME280;33123;50.118;10.272;2023-04-07T00:39:52;97691.19;;;6.28;51.37
47374;BME280;33123;50.118;10.272;2023-04-07T00:42:18;97686.31;;;6.31;50.77
47374;BME280;33123;50.118;10.272;2023-04-07T00:44:45;97683.25;;;6.34;50.24
47374;BME280;33123;50.118;10.272;2023-04-07T00:47:12;97637.97;;;6.16;50.79
47374;BME280;33123;50.118;10.272;2023-04-07T00:49:40;97676.28;;;6.47;51.18
47374;BME280;33123;50.118;10.272;2023-04-07T00:52:08;97678.81;;;6.53;51.05
47374;BME280;33123;50.118;10.272;2023-04-07T00:54:36;97671.66;;;6.60;51.07
47374;BME280;33123;50.118;10.272;2023-04-07T00:57:03;97676.84;;;6.67;51.46
47374;BME280;33123;50.118;10.272;2023-04-07T00:59:29;97674.13;;;6.74;51.13
47374;BME280;33123;50.118;10.272;2023-04-07T01:02:01;97670.38;;;6.81;51.75
47374;BME280;33123;50.118;10.272;2023-04-07T01:04:32;97667.34;;;6.84;51.82
47374;BME280;33123;50.118;10.272;2023-04-07T01:07:03;97659.81;;;6.88;51.77
47374;BME280;33123;50.118;10.272;2023-04-07T01:09:36;97625.81;;;6.70;51.86
47374;BME280;33123;50.118;10.272;2023-04-07T01:12:09;97658.25;;;6.99;52.01
47374;BME280;33123;50.118;10.272;2023-04-07T01:14:40;97659.41;;;7.03;52.36
47374;BME280;33123;50.118;10.272;2023-04-07T01:17:09;97660.56;;;7.07;52.30
47374;BME280;33123;50.118;10.272;2023-04-07T01:19:39;97665.16;;;7.11;52.98
47374;BME280;33123;50.118;10.272;2023-04-07T01:22:11;97661.25;;;7.14;54.80
47374;BME280;33123;50.118;10.272;2023-04-07T01:24:53;97654.31;;;7.20;54.76
47374;BME280;33123;50.118;10.272;2023-04-07T01:27:42;97653.88;;;7.23;54.38
47374;BME280;33123;50.118;10.272;2023-04-07T01:30:16;97646.81;;;7.23;54.28
47374;BME280;33123;50.118;10.272;2023-04-07T01:32:46;97645.56;;;7.26;55.01
47374;BME280;33123;50.118;10.272;2023-04-07T01:35:15;97647.50;;;7.30;55.68
47374;BME280;33123;50.118;10.272;2023-04-07T01:37:43;97647.50;;;7.30;57.08
47374;BME280;33123;50.118;10.272;2023-04-07T01:40:13;97642.38;;;7.35;57.77
47374;BME280;33123;50.118;10.272;2023-04-07T01:42:41;97641.03;;;7.33;59.67
47374;BME280;33123;50.118;10.272;2023-04-07T01:45:09;97634.53;;;7.35;59.32
47374;BME280;33123;50.118;10.272;2023-04-07T01:47:38;97641.59;;;7.47;59.57
47374;BME280;33123;50.118;10.272;2023-04-07T01:50:06;97607.84;;;7.27;59.07
47374;BME280;33123;50.118;10.272;2023-04-07T01:52:35;97640.69;;;7.53;60.07
47374;BME280;33123;50.118;10.272;2023-04-07T01:55:02;97632.03;;;7.52;60.61
47374;BME280;33123;50.118;10.272;2023-04-07T01:57:29;97637.16;;;7.59;60.66
47374;BME280;33123;50.118;10.272;2023-04-07T01:59:55;97643.78;;;7.61;61.28
47374;BME280;33123;50.118;10.272;2023-04-07T02:02:22;97636.84;;;7.67;61.62
47374;BME280;33123;50.118;10.272;2023-04-07T02:04:53;97635.69;;;7.75;61.83
47374;BME280;33123;50.118;10.272;2023-04-07T02:07:24;97632.13;;;7.81;61.66
47374;BME280;33123;50.118;10.272;2023-04-07T02:09:55;97643.44;;;7.81;62.30
47374;BME280;33123;50.118;10.272;2023-04-07T02:12:25;97632.59;;;7.89;62.07
47374;BME280;33123;50.118;10.272;2023-04-07T02:14:53;97632.50;;;7.84;62.22
47374;BME280;33123;50.118;10.272;2023-04-07T02:17:21;97633.72;;;7.93;62.18
47374;BME280;33123;50.118;10.272;2023-04-07T02:19:51;97627.56;;;8.00;61.85
47374;BME280;33123;50.118;10.272;2023-04-07T02:22:18;97624.72;;;8.01;61.48
47374;BME280;33123;50.118;10.272;2023-04-07T02:24:46;97636.34;;;8.05;61.76
47374;BME280;33123;50.118;10.272;2023-04-07T02:27:12;97628.78;;;8.09;61.50
47374;BME280;33123;50.118;10.272;2023-04-07T02:29:39;97618.97;;;8.04;62.13
47374;BME280;33123;50.118;10.272;2023-04-07T02:32:06;97626.75;;;8.11;62.19
47374;BME280;33123;50.118;10.272;2023-04-07T02:34:32;97621.88;;;7.91;63.18
47374;BME280;33123;50.118;10.272;2023-04-07T02:37:01;97621.19;;;7.96;62.55
47374;BME280;33123;50.118;10.272;2023-04-07T02:39:27;97622.19;;;8.06;62.71
47374;BME280;33123;50.118;10.272;2023-04-07T02:41:54;97621.50;;;8.11;62.67
47374;BME280;33123;50.118;10.272;2023-04-07T02:44:21;97614.22;;;8.01;62.89
47374;BME280;33123;50.118;10.272;2023-04-07T02:46:47;97623.53;;;8.09;62.58
47374;BME280;33123;50.118;10.272;2023-04-07T02:49:14;97618.06;;;8.10;62.43
47374;BME280;33123;50.118;10.272;2023-04-07T02:51:40;97614.75;;;8.15;61.82
47374;BME280;33123;50.118;10.272;2023-04-07T02:54:08;97617.25;;;8.10;62.42
47374;BME280;33123;50.118;10.272;2023-04-07T02:56:35;97617.16;;;8.05;63.09
47374;BME280;33123;50.118;10.272;2023-04-07T02:59:02;97618.88;;;8.11;63.27
47374;BME280;33123;50.118;10.272;2023-04-07T03:01:28;97618.28;;;8.09;62.98
47374;BME280;33123;50.118;10.272;2023-04-07T03:03:55;97613.53;;;8.06;63.49
47374;BME280;33123;50.118;10.272;2023-04-07T03:06:21;97609.88;;;8.07;63.68
47374;BME280;33123;50.118;10.272;2023-04-07T03:08:48;97612.34;;;8.13;63.50
47374;BME280;33123;50.118;10.272;2023-04-07T03:11:16;97613.38;;;8.12;63.59
47374;BME280;33123;50.118;10.272;2023-04-07T03:13:42;97614.97;;;8.13;63.81
47374;BME280;33123;50.118;10.272;2023-04-07T03:16:09;97613.16;;;8.14;63.55
47374;BME280;33123;50.118;10.272;2023-04-07T03:18:35;97612.91;;;8.15;63.96
47374;BME280;33123;50.118;10.272;2023-04-07T03:21:02;97612.13;;;8.15;63.40
47374;BME280;33123;50.118;10.272;2023-04-07T03:23:29;97605.03;;;8.15;63.48
47374;BME280;33123;50.118;10.272;2023-04-07T03:25:55;97615.53;;;8.15;63.93
47374;BME280;33123;50.118;10.272;2023-04-07T03:28:24;97620.34;;;8.18;63.74
47374;BME280;33123;50.118;10.272;2023-04-07T03:30:50;97617.47;;;8.20;63.96
47374;BME280;33123;50.118;10.272;2023-04-07T03:33:17;97617.47;;;8.20;63.97
47374;BME280;33123;50.118;10.272;2023-04-07T03:35:44;97613.00;;;8.20;64.28
47374;BME280;33123;50.118;10.272;2023-04-07T03:38:10;97616.44;;;8.21;64.00
47374;BME280;33123;50.118;10.272;2023-04-07T03:40:37;97606.97;;;8.20;64.26
47374;BME280;33123;50.118;10.272;2023-04-07T03:43:05;97604.94;;;8.22;64.23
47374;BME280;33123;50.118;10.272;2023-04-07T03:45:38;97611.75;;;8.23;63.76
47374;BME280;33123;50.118;10.272;2023-04-07T03:48:04;97602.06;;;8.24;63.61
47374;BME280;33123;50.118;10.272;2023-04-07T03:50:34;97602.84;;;8.24;63.77
47374;BME280;33123;50.118;10.272;2023-04-07T03:53:01;97601.81;;;8.25;62.95
47374;BME280;33123;50.118;10.272;2023-04-07T03:55:28;97603.19;;;8.28;63.35
47374;BME280;33123;50.118;10.272;2023-04-07T03:57:54;97599.28;;;8.30;63.23
47374;BME280;33123;50.118;10.272;2023-04-07T04:00:21;97603.50;;;8.31;63.20
47374;BME280;33123;50.118;10.272;2023-04-07T04:02:49;97596.66;;;8.30;62.93
47374;BME280;33123;50.118;10.272;2023-04-07T04:05:16;97604.09;;;8.33;62.96
47374;BME280;33123;50.118;10.272;2023-04-07T04:07:42;97600.63;;;8.33;62.97
47374;BME280;33123;50.118;10.272;2023-04-07T04:10:09;97606.25;;;8.36;63.07
47374;BME280;33123;50.118;10.272;2023-04-07T04:12:36;97606.25;;;8.36;63.09
47374;BME280;33123;50.118;10.272;2023-04-07T04:15:03;97603.06;;;8.34;63.65
47374;BME280;33123;50.118;10.272;2023-04-07T04:17:30;97603.06;;;8.34;63.71
47374;BME280;33123;50.118;10.272;2023-04-07T04:19:57;97596.66;;;8.30;63.64
47374;BME280;33123;50.118;10.272;2023-04-07T04:22:24;97598.25;;;8.31;63.87
47374;BME280;33123;50.118;10.272;2023-04-07T04:24:51;97602.72;;;8.31;63.94
47374;BME280;33123;50.118;10.272;2023-04-07T04:27:18;97600.31;;;8.29;64.02
47374;BME280;33123;50.118;10.272;2023-04-07T04:29:45;97599.75;;;8.27;64.13
47374;BME280;33123;50.118;10.272;2023-04-07T04:32:11;97597.13;;;8.27;64.59
47374;BME280;33123;50.118;10.272;2023-04-07T04:34:38;97597.94;;;8.28;64.51
47374;BME280;33123;50.118;10.272;2023-04-07T04:37:07;97599.75;;;8.27;64.60
47374;BME280;33123;50.118;10.272;2023-04-07T04:39:34;97604.00;;;8.28;65.05
47374;BME280;33123;50.118;10.272;2023-04-07T04:42:01;97601.13;;;8.30;64.88
47374;BME280;33123;50.118;10.272;2023-04-07T04:44:28;97606.13;;;8.31;65.12
47374;BME280;33123;50.118;10.272;2023-04-07T04:46:54;97605.09;;;8.32;65.18
47374;BME280;33123;50.118;10.272;2023-04-07T04:49:21;97550.09;;;7.97;65.06
47374;BME280;33123;50.118;10.272;2023-04-07T04:51:48;97604.31;;;8.32;65.25
47374;BME280;33123;50.118;10.272;2023-04-07T04:54:17;97604.44;;;8.25;65.50
47374;BME280;33123;50.118;10.272;2023-04-07T04:56:44;97602.06;;;8.24;66.45
47374;BME280;33123;50.118;10.272;2023-04-07T04:59:10;97605.47;;;8.24;66.32
47374;BME280;33123;50.118;10.272;2023-04-07T05:01:37;97602.84;;;8.24;66.57
47374;BME280;33123;50.118;10.272;2023-04-07T05:04:04;97613.34;;;8.24;66.72
47374;BME280;33123;50.118;10.272;2023-04-07T05:06:30;97603.88;;;8.23;66.82
47374;BME280;33123;50.118;10.272;2023-04-07T05:08:57;97613.34;;;8.24;66.66
47374;BME280;33123;50.118;10.272;2023-04-07T05:11:25;97614.94;;;8.25;66.89
47374;BME280;33123;50.118;10.272;2023-04-07T05:13:52;97614.38;;;8.23;66.93
47374;BME280;33123;50.118;10.272;2023-04-07T05:16:18;97612.56;;;8.24;66.68
47374;BME280;33123;50.118;10.272;2023-04-07T05:18:45;97612.56;;;8.24;66.48
47374;BME280;33123;50.118;10.272;2023-04-07T05:21:12;97613.34;;;8.24;66.99
47374;BME280;33123;50.118;10.272;2023-04-07T05:23:39;97605.63;;;8.17;66.89
47374;BME280;33123;50.118;10.272;2023-04-07T05:26:05;97611.75;;;8.23;66.31
47374;BME280;33123;50.118;10.272;2023-04-07T05:28:33;97608.09;;;8.24;66.47
47374;BME280;33123;50.118;10.272;2023-04-07T05:31:00;97614.16;;;8.25;66.35
47374;BME280;33123;50.118;10.272;2023-04-07T05:33:27;97615.75;;;8.26;65.85
47374;BME280;33123;50.118;10.272;2023-04-07T05:35:53;97609.69;;;8.25;65.70
47374;BME280;33123;50.118;10.272;2023-04-07T05:38:20;97610.50;;;8.26;66.12
47374;BME280;33123;50.118;10.272;2023-04-07T05:40:47;97614.94;;;8.25;66.17
47374;BME280;33123;50.118;10.272;2023-04-07T05:43:13;97610.72;;;8.24;64.92
47374;BME280;33123;50.118;10.272;2023-04-07T05:45:41;97606.81;;;8.27;65.60
47374;BME280;33123;50.118;10.272;2023-04-07T05:48:08;97609.25;;;8.28;66.04
47374;BME280;33123;50.118;10.272;2023-04-07T05:50:34;97609.00;;;8.30;65.97
47374;BME280;33123;50.118;10.272;2023-04-07T05:53:01;97605.09;;;8.32;65.80
47374;BME280;33123;50.118;10.272;2023-04-07T05:55:28;97612.31;;;8.37;66.53
47374;BME280;33123;50.118;10.272;2023-04-07T05:57:55;97607.41;;;8.40;66.90
47374;BME280;33123;50.118;10.272;2023-04-07T06:00:22;97513.63;;;7.84;66.68
47374;BME280;33123;50.118;10.272;2023-04-07T06:02:50;97604.19;;;8.50;67.47
47374;BME280;33123;50.118;10.272;2023-04-07T06:05:17;97611.56;;;8.53;67.64
47374;BME280;33123;50.118;10.272;2023-04-07T06:07:43;97609.84;;;8.59;67.96
47374;BME280;33123;50.118;10.272;2023-04-07T06:10:10;97613.84;;;8.61;67.38
47374;BME280;33123;50.118;10.272;2023-04-07T06:12:36;97605.72;;;8.63;66.41
47374;BME280;33123;50.118;10.272;2023-04-07T06:15:03;97611.75;;;8.63;66.04
47374;BME280;33123;50.118;10.272;2023-04-07T06:17:30;97610.16;;;8.62;66.50
47374;BME280;33123;50.118;10.272;2023-04-07T06:19:58;97613.59;;;8.63;65.67
47374;BME280;33123;50.118;10.272;2023-04-07T06:22:25;97614.94;;;8.65;65.84
47374;BME280;33123;50.118;10.272;2023-04-07T06:24:51;97607.31;;;8.64;65.27
47374;BME280;33123;50.118;10.272;2023-04-07T06:27:18;97612.09;;;8.67;64.76
47374;BME280;33123;50.118;10.272;2023-04-07T06:29:46;97610.81;;;8.69;66.33
47374;BME280;33123;50.118;10.272;2023-04-07T06:32:13;97611.16;;;8.73;66.01
47374;BME280;33123;50.118;10.272;2023-04-07T06:34:40;97606.78;;;8.79;66.05
47374;BME280;33123;50.118;10.272;2023-04-07T06:37:08;97604.47;;;8.82;66.08
47374;BME280;33123;50.118;10.272;2023-04-07T06:39:34;97606.47;;;8.92;65.89
47374;BME280;33123;50.118;10.272;2023-04-07T06:42:02;97602.59;;;8.94;66.73
47374;BME280;33123;50.118;10.272;2023-04-07T06:44:29;97609.13;;;9.09;65.92
47374;BME280;33123;50.118;10.272;2023-04-07T06:46:55;97614.00;;;9.17;65.70
47374;BME280;33123;50.118;10.272;2023-04-07T06:49:22;97611.22;;;9.23;65.88
47374;BME280;33123;50.118;10.272;2023-04-07T06:51:49;97618.38;;;9.28;65.05
47374;BME280;33123;50.118;10.272;2023-04-07T06:54:17;97622.03;;;9.27;64.46
47374;BME280;33123;50.118;10.272;2023-04-07T06:56:43;97619.47;;;9.32;64.24
47374;BME280;33123;50.118;10.272;2023-04-07T06:59:10;97611.50;;;9.27;63.91
47374;BME280;33123;50.118;10.272;2023-04-07T07:01:37;97619.81;;;9.36;64.42
47374;BME280;33123;50.118;10.272;2023-04-07T07:04:03;97554.00;;;8.97;63.34
47374;BME280;33123;50.118;10.272;2023-04-07T07:06:31;97621.81;;;9.45;64.40
47374;BME280;33123;50.118;10.272;2023-04-07T07:08:58;97626.50;;;9.43;62.20
47374;BME280;33123;50.118;10.272;2023-04-07T07:11:26;97623.16;;;9.48;62.59
47374;BME280;33123;50.118;10.272;2023-04-07T07:13:53;97612.44;;;9.55;63.38
47374;BME280;33123;50.118;10.272;2023-04-07T07:16:20;97621.53;;;9.64;63.58
47374;BME280;33123;50.118;10.272;2023-04-07T07:18:48;97624.56;;;9.72;63.39
47374;BME280;33123;50.118;10.272;2023-04-07T07:21:15;97624.16;;;9.81;64.36
47374;BME280;33123;50.118;10.272;2023-04-07T07:23:42;97630.81;;;9.88;62.57
47374;BME280;33123;50.118;10.272;2023-04-07T07:26:09;97615.91;;;9.94;61.05
47374;BME280;33123;50.118;10.272;2023-04-07T07:28:37;97581.03;;;9.65;61.36
47374;BME280;33123;50.118;10.272;2023-04-07T07:31:08;97621.19;;;9.94;60.04
47374;BME280;33123;50.118;10.272;2023-04-07T07:33:34;97608.44;;;9.86;59.61
47374;BME280;33123;50.118;10.272;2023-04-07T07:36:01;97627.25;;;9.94;59.89
47374;BME280;33123;50.118;10.272;2023-04-07T07:38:27;97632.34;;;10.01;60.01
47374;BME280;33123;50.118;10.272;2023-04-07T07:40:54;97631.91;;;10.09;60.45
47374;BME280;33123;50.118;10.272;2023-04-07T07:43:21;97633.53;;;10.15;59.46
47374;BME280;33123;50.118;10.272;2023-04-07T07:45:49;97634.97;;;10.23;60.20
47374;BME280;33123;50.118;10.272;2023-04-07T07:48:15;97628.91;;;10.22;58.44
47374;BME280;33123;50.118;10.272;2023-04-07T07:50:42;97633.53;;;10.32;57.93
47374;BME280;33123;50.118;10.272;2023-04-07T07:53:08;97624.34;;;10.35;59.04
47374;BME280;33123;50.118;10.272;2023-04-07T07:55:35;97628.44;;;10.47;59.18
47374;BME280;33123;50.118;10.272;2023-04-07T07:58:02;97629.53;;;10.51;58.48
47374;BME280;33123;50.118;10.272;2023-04-07T08:00:30;97633.03;;;10.57;59.27
47374;BME280;33123;50.118;10.272;2023-04-07T08:03:00;97627.03;;;10.62;58.63
47374;BME280;33123;50.118;10.272;2023-04-07T08:05:28;97633.44;;;10.71;58.33
47374;BME280;33123;50.118;10.272;2023-04-07T08:07:54;97625.53;;;10.71;56.44
47374;BME280;33123;50.118;10.272;2023-04-07T08:10:21;97632.22;;;10.78;57.38
47374;BME280;33123;50.118;10.272;2023-04-07T08:12:49;97630.91;;;10.81;57.10
47374;BME280;33123;50.118;10.272;2023-04-07T08:15:16;97633.59;;;10.86;56.29
47374;BME280;33123;50.118;10.272;2023-04-07T08:17:42;97637.59;;;10.94;57.70
47374;BME280;33123;50.118;10.272;2023-04-07T08:20:11;97631.06;;;10.96;56.42
47374;BME280;33123;50.118;10.272;2023-04-07T08:22:38;97634.22;;;10.98;56.20
47374;BME280;33123;50.118;10.272;2023-04-07T08:25:05;97639.59;;;11.08;57.02
47374;BME280;33123;50.118;10.272;2023-04-07T08:27:31;97644.91;;;11.14;56.70
47374;BME280;33123;50.118;10.272;2023-04-07T08:30:00;97642.59;;;11.17;56.69
47374;BME280;33123;50.118;10.272;2023-04-07T08:32:33;97652.88;;;11.19;57.81
47374;BME280;33123;50.118;10.272;2023-04-07T08:35:00;97657.91;;;11.20;58.08
47374;BME280;33123;50.118;10.272;2023-04-07T08:37:28;97652.41;;;11.22;57.89
47374;BME280;33123;50.118;10.272;2023-04-07T08:39:55;97645.50;;;11.21;57.04
47374;BME280;33123;50.118;10.272;2023-04-07T08:42:23;97642.06;;;11.20;57.59
47374;BME280;33123;50.118;10.272;2023-04-07T08:44:53;97644.97;;;11.19;58.26
47374;BME280;33123;50.118;10.272;2023-04-07T08:47:21;97649.16;;;11.15;55.96
47374;BME280;33123;50.118;10.272;2023-04-07T08:49:51;97644.38;;;11.12;57.22
47374;BME280;33123;50.118;10.272;2023-04-07T08:52:21;97616.97;;;10.86;57.65
47374;BME280;33123;50.118;10.272;2023-04-07T08:54:50;97648.03;;;11.05;57.40
47374;BME280;33123;50.118;10.272;2023-04-07T08:57:18;97645.88;;;11.02;56.43
47374;BME280;33123;50.118;10.272;2023-04-07T08:59:47;97648.50;;;11.02;57.54
47374;BME280;33123;50.118;10.272;2023-04-07T09:02:17;97650.16;;;11.08;58.61
47374;BME280;33123;50.118;10.272;2023-04-07T09:04:44;97653.59;;;11.09;56.18
47374;BME280;33123;50.118;10.272;2023-04-07T09:07:11;97649.88;;;11.05;57.03
47374;BME280;33123;50.118;10.272;2023-04-07T09:09:38;97620.91;;;10.83;57.76
47374;BME280;33123;50.118;10.272;2023-04-07T09:12:06;97660.69;;;11.08;57.39
47374;BME280;33123;50.118;10.272;2023-04-07T09:14:33;97651.19;;;11.07;56.48
47374;BME280;33123;50.118;10.272;2023-04-07T09:17:00;97654.88;;;11.06;57.71
47374;BME280;33123;50.118;10.272;2023-04-07T09:19:27;97658.06;;;11.08;57.83
47374;BME280;33123;50.118;10.272;2023-04-07T09:21:55;97655.72;;;11.12;56.81
47374;BME280;33123;50.118;10.272;2023-04-07T09:24:23;97642.81;;;11.16;58.79
47374;BME280;33123;50.118;10.272;2023-04-07T09:26:50;97648.16;;;11.21;58.43
47374;BME280;33123;50.118;10.272;2023-04-07T09:29:21;97654.03;;;11.28;58.79
47374;BME280;33123;50.118;10.272;2023-04-07T09:31:49;97655.41;;;11.35;59.19
47374;BME280;33123;50.118;10.272;2023-04-07T09:34:26;97660.75;;;11.46;57.90
47374;BME280;33123;50.118;10.272;2023-04-07T09:36:53;97658.44;;;11.49;57.96
47374;BME280;33123;50.118;10.272;2023-04-07T09:39:21;97650.00;;;11.52;57.16
47374;BME280;33123;50.118;10.272;2023-04-07T09:41:48;97652.13;;;11.55;58.62
47374;BME280;33123;50.118;10.272;2023-04-07T09:44:14;97656.91;;;11.58;57.78
47374;BME280;33123;50.118;10.272;2023-04-07T09:46:49;97647.91;;;11.59;58.12
47374;BME280;33123;50.118;10.272;2023-04-07T09:49:16;97652.66;;;11.57;55.94
47374;BME280;33123;50.118;10.272;2023-04-07T09:51:56;97656.31;;;11.51;52.83
47374;BME280;33123;50.118;10.272;2023-04-07T09:54:33;97602.28;;;11.22;52.83
47374;BME280;33123;50.118;10.272;2023-04-07T09:57:02;97656.31;;;11.51;52.88
47374;BME280;33123;50.118;10.272;2023-04-07T09:59:29;97658.47;;;11.59;52.80
47374;BME280;33123;50.118;10.272;2023-04-07T10:01:58;97612.44;;;11.40;52.65
47374;BME280;33123;50.118;10.272;2023-04-07T10:04:25;97653.16;;;11.54;53.11
47374;BME280;33123;50.118;10.272;2023-04-07T10:06:53;97639.38;;;11.47;54.01
47374;BME280;33123;50.118;10.272;2023-04-07T10:09:22;97649.81;;;11.64;52.56
47374;BME280;33123;50.118;10.272;2023-04-07T10:11:49;97645.53;;;11.58;52.79
47374;BME280;33123;50.118;10.272;2023-04-07T10:14:17;97642.16;;;11.62;52.12
47374;BME280;33123;50.118;10.272;2023-04-07T10:16:45;97646.34;;;11.58;52.21
47374;BME280;33123;50.118;10.272;2023-04-07T10:19:14;97643.50;;;11.70;52.91
47374;BME280;33123;50.118;10.272;2023-04-07T10:21:42;97644.81;;;11.68;50.98
47374;BME280;33123;50.118;10.272;2023-04-07T10:24:16;97600.84;;;11.46;50.43
47374;BME280;33123;50.118;10.272;2023-04-07T10:26:50;97643.66;;;11.53;50.44
47374;BME280;33123;50.118;10.272;2023-04-07T10:29:19;97645.31;;;11.64;50.22
47374;BME280;33123;50.118;10.272;2023-04-07T10:31:47;97641.63;;;11.60;49.46
47374;BME280;33123;50.118;10.272;2023-04-07T10:34:16;97649.53;;;11.60;50.55
47374;BME280;33123;50.118;10.272;2023-04-07T10:37:10;97646.78;;;11.82;50.84
47374;BME280;33123;50.118;10.272;2023-04-07T10:39:37;97638.16;;;11.97;51.85
47374;BME280;33123;50.118;10.272;2023-04-07T10:42:04;97646.66;;;12.09;51.38
47374;BME280;33123;50.118;10.272;2023-04-07T10:44:45;97650.19;;;12.25;49.75
47374;BME280;33123;50.118;10.272;2023-04-07T10:47:12;97647.84;;;12.29;49.52
47374;BME280;33123;50.118;10.272;2023-04-07T10:50:13;97651.56;;;12.38;48.67
47374;BME280;33123;50.118;10.272;2023-04-07T10:52:41;97649.97;;;12.37;49.04
47374;BME280;33123;50.118;10.272;2023-04-07T10:55:31;97648.34;;;12.26;47.92
47374;BME280;33123;50.118;10.272;2023-04-07T10:58:15;97650.47;;;12.29;46.94
47374;BME280;33123;50.118;10.272;2023-04-07T11:01:15;97646.78;;;12.30;47.63
47374;BME280;33123;50.118;10.272;2023-04-07T11:03:52;97649.38;;;12.20;48.26
47374;BME280;33123;50.118;10.272;2023-04-07T11:06:20;97642.25;;;12.25;48.32
47374;BME280;33123;50.118;10.272;2023-04-07T11:08:47;97644.69;;;12.37;48.73
47374;BME280;33123;50.118;10.272;2023-04-07T11:11:18;97649.19;;;12.41;48.55
47374;BME280;33123;50.118;10.272;2023-04-07T11:13:46;97646.88;;;12.55;49.38
47374;BME280;33123;50.118;10.272;2023-04-07T11:16:14;97620.44;;;12.50;49.41
47374;BME280;33123;50.118;10.272;2023-04-07T11:18:41;97637.41;;;12.75;49.55
47374;BME280;33123;50.118;10.272;2023-04-07T11:21:08;97637.94;;;12.82;49.74
47374;BME280;33123;50.118;10.272;2023-04-07T11:23:39;97641.97;;;12.94;50.75
47374;BME280;33123;50.118;10.272;2023-04-07T11:26:06;97640.38;;;13.04;50.17
47374;BME280;33123;50.118;10.272;2023-04-07T11:28:33;97637.47;;;13.15;50.55
47374;BME280;33123;50.118;10.272;2023-04-07T11:31:00;97638.31;;;13.26;49.55
47374;BME280;33123;50.118;10.272;2023-04-07T11:33:28;97641.22;;;13.35;48.71
47374;BME280;33123;50.118;10.272;2023-04-07T11:35:57;97640.69;;;13.28;47.42
47374;BME280;33123;50.118;10.272;2023-04-07T11:38:25;97629.56;;;13.31;48.15
47374;BME280;33123;50.118;10.272;2023-04-07T11:40:55;97635.16;;;13.44;47.68
47374;BME280;33123;50.118;10.272;2023-04-07T11:43:23;97639.91;;;13.42;47.26
47374;BME280;33123;50.118;10.272;2023-04-07T11:46:03;97643.88;;;13.40;46.08
47374;BME280;33123;50.118;10.272;2023-04-07T11:48:33;97639.09;;;13.72;46.71
47374;BME280;33123;50.118;10.272;2023-04-07T11:51:00;97640.38;;;13.85;44.73
47374;BME280;33123;50.118;10.272;2023-04-07T11:53:29;97646.44;;;14.06;43.87
47374;BME280;33123;50.118;10.272;2023-04-07T11:56:08;97645.81;;;14.30;44.72
47374;BME280;33123;50.118;10.272;2023-04-07T11:58:46;97642.84;;;14.51;43.96
47374;BME280;33123;50.118;10.272;2023-04-07T12:01:12;97647.31;;;14.61;42.14
47374;BME280;33123;50.118;10.272;2023-04-07T12:03:54;97642.25;;;14.65;41.96
47374;BME280;33123;50.118;10.272;2023-04-07T12:06:26;97641.38;;;14.79;44.55
47374;BME280;33123;50.118;10.272;2023-04-07T12:08:54;97620.66;;;14.82;42.96
47374;BME280;33123;50.118;10.272;2023-04-07T12:11:22;97638.06;;;15.03;42.44
47374;BME280;33123;50.118;10.272;2023-04-07T12:13:51;97644.88;;;15.14;42.51
47374;BME280;33123;50.118;10.272;2023-04-07T12:16:18;97639.56;;;15.14;42.01
47374;BME280;33123;50.118;10.272;2023-04-07T12:18:44;97652.22;;;15.27;43.31
47374;BME280;33123;50.118;10.272;2023-04-07T12:21:11;97520.41;;;14.34;39.71
47374;BME280;33123;50.118;10.272;2023-04-07T12:23:37;97647.53;;;15.14;40.78
47374;BME280;33123;50.118;10.272;2023-04-07T12:26:05;97647.56;;;15.09;40.99
47374;BME280;33123;50.118;10.272;2023-04-07T12:28:33;97642.78;;;15.11;41.07
47374;BME280;33123;50.118;10.272;2023-04-07T12:31:00;97648.34;;;15.10;40.99
47374;BME280;33123;50.118;10.272;2023-04-07T12:33:26;97650.03;;;15.00;40.12
47374;BME280;33123;50.118;10.272;2023-04-07T12:35:55;97640.75;;;14.93;40.53
47374;BME280;33123;50.118;10.272;2023-04-07T12:38:22;97638.22;;;14.77;41.07
47374;BME280;33123;50.118;10.272;2023-04-07T12:40:49;97643.56;;;14.72;41.17
47374;BME280;33123;50.118;10.272;2023-04-07T12:43:16;97641.69;;;14.73;41.51
47374;BME280;33123;50.118;10.272;2023-04-07T12:45:44;97640.88;;;14.77;41.32
47374;BME280;33123;50.118;10.272;2023-04-07T12:48:11;97637.22;;;14.63;40.95
47374;BME280;33123;50.118;10.272;2023-04-07T12:50:38;97629.88;;;14.40;40.71
47374;BME280;33123;50.118;10.272;2023-04-07T12:53:04;97639.38;;;14.56;41.41
47374;BME280;33123;50.118;10.272;2023-04-07T12:55:31;97619.28;;;14.40;41.64
47374;BME280;33123;50.118;10.272;2023-04-07T12:58:00;97630.97;;;14.39;43.36
47374;BME280;33123;50.118;10.272;2023-04-07T13:00:27;97628.53;;;14.42;43.33